createdAt,value
2019-01-21T00:04:53.996Z,30.77
2019-01-21T00:09:59.349Z,34.63
2019-01-21T00:15:04.841Z,34.63
2019-01-21T00:20:11.365Z,35.03
2019-01-21T00:25:16.801Z,33.20
2019-01-21T00:30:22.159Z,33.13
2019-01-21T00:35:27.542Z,38.43
2019-01-21T00:40:32.861Z,37.70
2019-01-21T00:45:38.199Z,35.17
2019-01-21T00:50:43.505Z,31.63
2019-01-21T00:55:48.827Z,33.73
2019-01-21T01:00:54.200Z,34.10
2019-01-21T01:05:59.585Z,30.63
2019-01-21T01:11:04.929Z,31.33
2019-01-21T01:16:10.286Z,31.57
2019-01-21T01:21:15.617Z,30.50
2019-01-21T01:26:20.963Z,33.77
2019-01-21T01:31:26.272Z,30.77
2019-01-21T01:36:31.673Z,29.53
2019-01-21T01:41:36.990Z,30.20
2019-01-21T01:46:42.318Z,29.00
2019-01-21T01:51:47.652Z,26.37
2019-01-21T01:56:52.979Z,33.63
2019-01-21T02:01:58.433Z,35.43
2019-01-21T02:07:03.840Z,26.30
2019-01-21T02:12:09.198Z,30.70
2019-01-21T02:17:14.538Z,29.53
2019-01-21T02:22:19.887Z,25.13
2019-01-21T02:28:22.898Z,27.97
2019-01-21T02:34:04.556Z,26.07
2019-01-21T02:39:43.034Z,31.00
2019-01-21T02:45:50.754Z,27.03
2019-01-21T02:52:02.087Z,28.97
2019-01-21T02:57:58.676Z,24.67
2019-01-21T03:03:42.703Z,31.57
2019-01-21T03:09:41.483Z,30.13
2019-01-21T03:15:41.408Z,27.13
2019-01-21T03:21:29.828Z,31.70
2019-01-21T03:27:06.930Z,29.20
2019-01-21T03:32:55.296Z,28.83
2019-01-21T03:39:09.610Z,26.37
2019-01-21T03:45:24.323Z,29.27
2019-01-21T03:51:42.765Z,24.03
2019-01-21T03:57:24.772Z,25.53
2019-01-21T04:03:16.492Z,23.00
2019-01-21T04:09:39.840Z,29.70
2019-01-21T04:15:05.897Z,29.03
2019-01-21T04:20:39.833Z,27.27
2019-01-21T04:26:23.012Z,24.30
2019-01-21T04:32:22.359Z,26.20
2019-01-21T04:38:37.015Z,23.83
2019-01-21T04:44:29.791Z,25.93
2019-01-21T04:50:26.226Z,23.60
2019-01-21T04:56:28.879Z,26.33
2019-01-21T05:02:31.778Z,21.93
2019-01-21T05:08:31.378Z,23.23
2019-01-21T05:14:32.999Z,22.17
2019-01-21T05:20:52.192Z,23.90
2019-01-21T05:27:00.877Z,28.27
2019-01-21T05:32:58.374Z,22.87
2019-01-21T05:38:48.936Z,26.07
2019-01-21T05:44:44.405Z,24.37
2019-01-21T05:50:45.516Z,25.43
2019-01-21T05:57:04.603Z,22.50
2019-01-21T06:02:52.485Z,26.53
2019-01-21T06:09:29.934Z,25.20
2019-01-21T06:15:38.473Z,22.00
2019-01-21T06:21:43.985Z,24.30
2019-01-21T06:27:38.407Z,21.17
2019-01-21T06:33:39.029Z,21.77
2019-01-21T06:39:46.766Z,24.27
2019-01-21T06:45:31.888Z,22.43
2019-01-21T06:51:52.500Z,25.83
2019-01-21T06:58:15.730Z,26.87
2019-01-21T07:04:37.958Z,25.80
2019-01-21T07:10:32.656Z,27.80
2019-01-21T07:16:50.155Z,28.90
2019-01-21T07:22:35.003Z,30.27
2019-01-21T07:28:36.424Z,28.57
2019-01-21T07:34:40.364Z,28.50
2019-01-21T07:40:26.164Z,28.60
2019-01-21T07:46:31.783Z,31.77
2019-01-21T07:52:55.367Z,30.60
2019-01-21T07:59:14.179Z,29.67
2019-01-21T08:05:20.892Z,26.13
2019-01-21T08:11:20.678Z,28.30
2019-01-21T08:17:14.402Z,28.73
2019-01-21T08:23:30.382Z,28.77
2019-01-21T08:29:38.873Z,23.33
2019-01-21T08:35:23.447Z,25.10
2019-01-21T08:41:46.890Z,22.10
2019-01-21T08:47:43.327Z,22.00
2019-01-21T08:53:52.481Z,24.90
2019-01-21T08:59:47.699Z,22.67
2019-01-21T09:05:32.031Z,21.80
2019-01-21T09:11:45.310Z,21.07
2019-01-21T09:17:46.115Z,22.20
2019-01-21T09:23:27.079Z,21.93
2019-01-21T09:29:26.944Z,20.50
2019-01-21T09:34:53.962Z,20.87
2019-01-21T09:41:15.202Z,20.37
2019-01-21T09:46:56.468Z,21.50
2019-01-21T09:52:08.476Z,24.07
2019-01-21T09:57:29.387Z,20.33
2019-01-21T10:02:42.243Z,24.73
2019-01-21T10:09:00.087Z,23.00
2019-01-21T10:15:15.818Z,23.87
2019-01-21T10:21:06.244Z,26.63
2019-01-21T10:27:26.775Z,29.03
2019-01-21T10:33:21.348Z,33.43
2019-01-21T10:39:08.090Z,31.27
2019-01-21T10:44:55.959Z,29.13
2019-01-21T10:51:07.097Z,27.83
2019-01-21T10:57:07.367Z,31.47
2019-01-21T11:03:07.869Z,32.10
2019-01-21T11:09:31.288Z,30.47
2019-01-21T11:15:30.382Z,34.73
2019-01-21T11:21:15.142Z,35.97
2019-01-21T11:26:54.598Z,34.77
2019-01-21T11:32:40.591Z,31.40
2019-01-21T11:38:37.975Z,36.97
2019-01-21T11:44:41.170Z,30.77
2019-01-21T11:50:37.074Z,34.10
2019-01-21T11:56:11.996Z,35.93
2019-01-21T12:02:07.907Z,33.40
2019-01-21T12:07:52.561Z,33.07
2019-01-21T12:13:53.592Z,30.13
2019-01-21T12:19:49.891Z,31.20
2019-01-21T12:25:28.197Z,34.10
2019-01-21T12:31:25.726Z,34.53
2019-01-21T12:37:15.652Z,29.47
2019-01-21T12:43:05.601Z,29.87
2019-01-21T12:49:28.073Z,30.30
2019-01-21T12:55:12.186Z,29.77
2019-01-21T13:01:22.760Z,37.23
2019-01-21T13:06:51.359Z,28.23
2019-01-21T13:13:04.589Z,25.17
2019-01-21T13:19:08.999Z,34.23
2019-01-21T13:24:49.277Z,23.50
2019-01-21T13:30:36.235Z,28.67
2019-01-21T13:36:21.091Z,27.33
2019-01-21T13:42:15.856Z,29.07
2019-01-21T13:48:03.233Z,28.10
2019-01-21T13:53:45.626Z,28.27
2019-01-21T13:59:43.966Z,27.43
2019-01-21T14:05:46.232Z,28.53
2019-01-21T14:11:44.985Z,25.80
2019-01-21T14:17:48.460Z,25.13
2019-01-21T14:24:00.223Z,28.43
2019-01-21T14:30:32.496Z,31.50
2019-01-21T14:36:24.214Z,23.90
2019-01-21T14:42:16.493Z,22.97
2019-01-21T14:48:13.930Z,26.50
2019-01-21T14:54:23.872Z,27.33
2019-01-21T15:00:21.545Z,29.90
2019-01-21T15:06:06.507Z,32.57
2019-01-21T15:12:01.675Z,31.17
2019-01-21T15:18:06.010Z,26.63
2019-01-21T15:23:59.456Z,28.70
2019-01-21T15:30:04.551Z,34.80
2019-01-21T15:36:01.413Z,33.40
2019-01-21T15:41:52.737Z,34.70
2019-01-21T15:47:47.365Z,36.73
2019-01-21T15:53:32.309Z,31.03
2019-01-21T15:59:33.713Z,31.90
2019-01-21T16:04:55.605Z,34.73
2019-01-21T16:10:33.709Z,36.77
2019-01-21T16:16:45.468Z,34.00
2019-01-21T16:23:01.775Z,36.83
2019-01-21T16:29:15.752Z,39.37
2019-01-21T16:34:54.310Z,40.37
2019-01-21T16:40:38.047Z,31.77
2019-01-21T16:45:43.482Z,35.77
2019-01-21T16:50:49.009Z,37.77
2019-01-21T16:55:54.375Z,36.33
2019-01-21T17:00:59.770Z,34.57
2019-01-21T17:06:05.587Z,36.63
2019-01-21T17:11:11.122Z,33.67
2019-01-21T17:16:16.442Z,32.23
2019-01-21T17:21:26.925Z,38.00
2019-01-21T17:26:28.879Z,32.50
2019-01-21T17:31:34.871Z,35.50
2019-01-21T17:36:54.985Z,39.37
2019-01-21T17:42:07.179Z,31.37
2019-01-21T17:47:23.003Z,36.57
2019-01-21T17:58:55.457Z,36.63
2019-01-21T18:05:24.383Z,46.67
2019-01-21T18:11:18.222Z,35.90
2019-01-21T18:17:32.057Z,37.20
2019-01-21T18:35:23.558Z,40.37
2019-01-21T18:40:30.846Z,40.00
2019-01-21T18:45:37.627Z,37.83
2019-01-21T18:50:48.324Z,35.17
2019-01-21T18:56:19.003Z,35.17
2019-01-21T19:03:06.027Z,34.53
2019-01-21T19:27:12.273Z,38.67
2019-01-21T19:32:38.891Z,34.50
2019-01-21T19:37:50.770Z,37.80
2019-01-21T19:43:09.385Z,46.77
2019-01-21T20:02:23.183Z,41.10
2019-01-21T20:08:17.691Z,47.90
2019-01-21T20:14:58.884Z,48.27
2019-01-21T20:20:16.556Z,41.27
2019-01-21T20:25:28.715Z,45.40
2019-01-21T20:38:49.003Z,40.83
2019-01-21T20:44:25.734Z,40.90
2019-01-21T21:02:51.737Z,44.53
2019-01-21T21:35:05.074Z,39.20
2019-01-21T21:40:16.905Z,44.80
2019-01-21T21:46:11.196Z,47.07
2019-01-21T21:51:41.137Z,42.27
2019-01-21T21:58:59.796Z,48.33
2019-01-21T22:05:47.122Z,46.03
2019-01-21T22:23:58.009Z,41.60
2019-01-21T22:29:08.668Z,43.00
2019-01-21T22:35:02.689Z,40.57
2019-01-21T22:40:46.526Z,42.23
2019-01-21T22:46:56.712Z,43.00
2019-01-21T22:52:05.732Z,39.83
2019-01-21T22:57:23.597Z,38.23
2019-01-21T23:02:37.193Z,45.03
2019-01-21T23:08:55.184Z,42.37
2019-01-21T23:14:09.706Z,40.37
2019-01-21T23:19:38.787Z,39.00
2019-01-21T23:24:53.671Z,40.80
2019-01-21T23:30:07.519Z,46.90
2019-01-21T23:35:13.664Z,42.63
2019-01-21T23:40:20.592Z,45.87
2019-01-21T23:45:36.598Z,44.83
2019-01-21T23:50:50.511Z,39.30
2019-01-21T23:56:11.443Z,40.90
